createdAt,value
2023-05-22T00:00:24.686Z,6.06
2023-05-22T00:03:36.696Z,6.27
2023-05-22T00:06:46.561Z,6.37
2023-05-22T00:09:54.135Z,6.39
2023-05-22T00:13:02.462Z,6.15
2023-05-22T00:16:10.457Z,6.77
2023-05-22T00:19:17.445Z,6.59
2023-05-22T00:22:35.959Z,6.46
2023-05-22T00:25:43.568Z,6.92
2023-05-22T00:28:52.750Z,6.42
2023-05-22T00:32:00.611Z,6.74
2023-05-22T00:35:08.425Z,6.39
2023-05-22T00:38:33.472Z,6.23
2023-05-22T00:41:41.593Z,6.34
2023-05-22T00:44:55.601Z,6.11
2023-05-22T00:48:02.383Z,5.97
2023-05-22T00:51:25.257Z,6.12
2023-05-22T00:54:50.693Z,6.36
2023-05-22T00:58:19.742Z,6.54
2023-05-22T01:01:43.458Z,6.42
2023-05-22T01:05:13.623Z,6.06
2023-05-22T01:08:34.489Z,6.00
2023-05-22T01:12:22.007Z,5.83
2023-05-22T01:16:17.986Z,5.97
2023-05-22T01:20:10.439Z,5.82
2023-05-22T01:24:26.095Z,5.92
2023-05-22T01:28:19.453Z,6.23
2023-05-22T01:31:33.037Z,5.94
2023-05-22T01:34:51.662Z,6.10
2023-05-22T01:38:05.034Z,6.10
2023-05-22T01:41:12.458Z,5.88
2023-05-22T01:44:18.492Z,5.49
2023-05-22T01:47:43.262Z,5.73
2023-05-22T01:51:15.130Z,5.67
2023-05-22T01:54:46.687Z,6.04
2023-05-22T01:58:32.561Z,5.71
2023-05-22T02:02:04.253Z,6.06
2023-05-22T02:05:36.041Z,5.74
2023-05-22T02:08:59.893Z,5.48
2023-05-22T02:12:22.098Z,5.62
2023-05-22T02:15:43.187Z,6.09
2023-05-22T02:19:06.890Z,6.16
2023-05-22T02:22:31.616Z,5.81
2023-05-22T02:25:52.616Z,5.61
2023-05-22T02:29:13.912Z,5.55
2023-05-22T02:32:35.066Z,5.48
2023-05-22T02:35:57.274Z,5.68
2023-05-22T02:39:21.249Z,6.16
2023-05-22T02:42:42.125Z,5.57
2023-05-22T02:46:03.124Z,5.64
2023-05-22T02:49:24.393Z,6.02
2023-05-22T02:52:45.635Z,5.63
2023-05-22T02:56:11.012Z,5.54
2023-05-22T02:59:33.230Z,5.60
2023-05-22T03:02:54.241Z,5.93
2023-05-22T03:06:02.145Z,5.71
2023-05-22T03:09:08.973Z,5.50
2023-05-22T03:12:18.459Z,5.69
2023-05-22T03:15:26.928Z,5.87
2023-05-22T03:18:38.619Z,5.54
2023-05-22T03:21:45.720Z,5.65
2023-05-22T03:24:53.858Z,5.84
2023-05-22T03:28:02.999Z,5.86
2023-05-22T03:31:14.221Z,5.77
2023-05-22T03:34:36.697Z,6.20
2023-05-22T03:37:44.654Z,5.82
2023-05-22T03:40:59.879Z,5.76
2023-05-22T03:44:17.126Z,5.86
2023-05-22T03:47:23.221Z,5.55
2023-05-22T03:50:30.033Z,5.52
2023-05-22T03:53:36.032Z,5.65
2023-05-22T03:56:42.811Z,5.70
2023-05-22T03:59:53.366Z,5.86
2023-05-22T04:03:07.092Z,5.56
2023-05-22T04:06:28.181Z,5.97
2023-05-22T04:09:35.850Z,5.74
2023-05-22T04:13:00.561Z,5.65
2023-05-22T04:16:24.384Z,5.38
2023-05-22T04:19:45.394Z,5.32
2023-05-22T04:23:07.550Z,5.86
2023-05-22T04:26:29.945Z,5.50
2023-05-22T04:29:50.931Z,5.62
2023-05-22T04:33:14.628Z,5.59
2023-05-22T04:36:22.576Z,5.97
2023-05-22T04:39:29.738Z,5.76
2023-05-22T04:42:38.585Z,5.37
2023-05-22T04:45:50.370Z,5.78
2023-05-22T04:49:02.439Z,5.94
2023-05-22T04:52:11.854Z,5.90
2023-05-22T04:55:19.535Z,5.83
2023-05-22T04:58:27.701Z,5.57
2023-05-22T05:01:35.948Z,5.35
2023-05-22T05:04:45.164Z,5.16
2023-05-22T05:07:53.779Z,5.23
2023-05-22T05:11:15.215Z,5.31
2023-05-22T05:14:36.865Z,5.47
2023-05-22T05:17:58.345Z,5.13
2023-05-22T05:21:23.610Z,5.14
2023-05-22T05:24:44.771Z,5.42
2023-05-22T05:28:11.121Z,5.11
2023-05-22T05:31:38.338Z,5.13
2023-05-22T05:35:13.360Z,5.06
2023-05-22T05:38:42.108Z,5.49
2023-05-22T05:42:10.450Z,5.09
2023-05-22T05:45:31.981Z,5.01
2023-05-22T05:48:44.700Z,5.02
2023-05-22T05:51:51.177Z,5.31
2023-05-22T05:55:02.611Z,4.97
2023-05-22T05:58:09.909Z,5.28
2023-05-22T06:01:29.897Z,5.29
2023-05-22T06:04:51.378Z,5.07
2023-05-22T06:08:13.814Z,4.87
2023-05-22T06:11:38.341Z,5.39
2023-05-22T06:14:59.642Z,4.93
2023-05-22T06:18:20.847Z,7.16
2023-05-22T06:21:28.944Z,4.94
2023-05-22T06:24:35.228Z,5.03
2023-05-22T06:27:51.245Z,4.62
2023-05-22T06:30:58.379Z,4.56
2023-05-22T06:34:08.289Z,4.73
2023-05-22T06:37:15.170Z,4.85
2023-05-22T06:40:31.122Z,4.54
2023-05-22T06:43:53.662Z,4.83
2023-05-22T06:47:10.773Z,4.77
2023-05-22T06:50:17.348Z,4.58
2023-05-22T06:53:25.878Z,4.30
2023-05-22T06:56:32.325Z,4.48
2023-05-22T07:00:01.848Z,4.60
2023-05-22T07:03:41.528Z,4.44
2023-05-22T07:07:33.106Z,4.47
2023-05-22T07:10:54.767Z,4.34
2023-05-22T07:14:16.555Z,4.10
2023-05-22T07:17:42.194Z,4.05
2023-05-22T07:20:50.505Z,4.42
2023-05-22T07:23:59.843Z,4.45
2023-05-22T07:27:07.461Z,4.41
2023-05-22T07:30:16.321Z,4.50
2023-05-22T07:33:26.446Z,4.02
2023-05-22T07:36:37.516Z,3.87
2023-05-22T07:39:47.118Z,3.94
2023-05-22T07:43:09.456Z,3.94
2023-05-22T07:46:30.935Z,3.74
2023-05-22T07:49:51.483Z,3.46
2023-05-22T07:52:58.610Z,3.66
2023-05-22T07:56:11.684Z,3.68
2023-05-22T07:59:21.398Z,3.47
2023-05-22T08:02:32.202Z,3.55
2023-05-22T08:05:41.257Z,3.56
2023-05-22T08:08:48.383Z,3.56
2023-05-22T08:11:56.247Z,3.64
2023-05-22T08:15:06.611Z,3.35
2023-05-22T08:18:14.955Z,3.94
2023-05-22T08:21:29.955Z,3.75
2023-05-22T08:24:36.180Z,3.80
2023-05-22T08:27:43.248Z,3.87
2023-05-22T08:30:49.470Z,4.37
2023-05-22T08:34:05.226Z,4.13
2023-05-22T08:37:14.382Z,4.14
2023-05-22T08:40:25.073Z,4.14
2023-05-22T08:43:32.403Z,4.32
2023-05-22T08:46:44.589Z,4.05
2023-05-22T08:50:07.236Z,4.29
2023-05-22T08:53:24.345Z,4.37
2023-05-22T08:56:33.335Z,4.28
2023-05-22T08:59:42.951Z,4.51
2023-05-22T09:02:52.752Z,4.43
2023-05-22T09:06:00.035Z,4.42
2023-05-22T09:09:31.141Z,4.32
2023-05-22T09:12:38.879Z,4.33
2023-05-22T09:15:44.990Z,4.45
2023-05-22T09:18:52.617Z,4.08
2023-05-22T09:22:09.877Z,5.92
2023-05-22T09:25:28.173Z,5.31
2023-05-22T09:28:38.083Z,4.17
2023-05-22T09:31:46.831Z,4.61
2023-05-22T09:35:11.977Z,5.45
2023-05-22T09:38:25.608Z,4.43
2023-05-22T09:41:42.470Z,3.63
2023-05-22T09:44:52.582Z,4.09
2023-05-22T09:47:58.932Z,4.05
2023-05-22T09:51:07.956Z,4.48
2023-05-22T09:54:17.942Z,4.50
2023-05-22T09:57:29.793Z,4.50
2023-05-22T10:00:40.378Z,4.32
2023-05-22T10:03:49.621Z,4.13
2023-05-22T10:07:00.177Z,4.33
2023-05-22T10:10:28.300Z,4.47
2023-05-22T10:13:38.899Z,4.62
2023-05-22T10:16:47.909Z,4.30
2023-05-22T10:19:57.499Z,4.17
2023-05-22T10:23:12.784Z,4.66
2023-05-22T10:26:22.956Z,4.13
2023-05-22T10:29:43.858Z,4.22
2023-05-22T10:33:01.371Z,4.55
2023-05-22T10:36:17.250Z,4.49
2023-05-22T10:39:46.544Z,4.55
2023-05-22T10:42:52.912Z,4.45
2023-05-22T10:46:16.928Z,4.64
2023-05-22T10:49:28.842Z,4.63
2023-05-22T10:52:36.124Z,4.77
2023-05-22T10:55:51.367Z,4.53
2023-05-22T10:59:11.415Z,4.51
2023-05-22T11:02:32.154Z,4.25
2023-05-22T11:05:42.841Z,4.33
2023-05-22T11:08:53.428Z,4.49
2023-05-22T11:12:21.046Z,4.41
2023-05-22T11:15:41.066Z,4.04
2023-05-22T11:18:51.209Z,4.45
2023-05-22T11:22:11.643Z,4.04
2023-05-22T11:25:22.725Z,4.35
2023-05-22T11:28:30.709Z,4.18
2023-05-22T11:31:39.972Z,4.23
2023-05-22T11:34:50.883Z,4.14
2023-05-22T11:37:59.419Z,4.30
2023-05-22T11:41:05.813Z,4.24
2023-05-22T11:44:17.547Z,4.20
2023-05-22T11:47:23.867Z,4.37
2023-05-22T11:50:47.683Z,4.38
2023-05-22T11:53:56.620Z,4.56
2023-05-22T11:57:08.566Z,4.24
2023-05-22T12:00:17.401Z,4.57
2023-05-22T12:03:26.091Z,4.51
2023-05-22T12:06:36.381Z,4.59
2023-05-22T12:09:45.107Z,4.58
2023-05-22T12:12:52.336Z,4.45
2023-05-22T12:16:03.329Z,4.69
2023-05-22T12:19:12.684Z,4.90
2023-05-22T12:22:29.270Z,4.52
2023-05-22T12:25:40.194Z,4.70
2023-05-22T12:28:46.617Z,4.64
2023-05-22T12:31:56.592Z,4.61
2023-05-22T12:35:09.297Z,4.71
2023-05-22T12:38:29.903Z,4.83
2023-05-22T12:41:39.607Z,4.89
2023-05-22T12:44:49.606Z,4.69
2023-05-22T12:47:55.699Z,4.81
2023-05-22T12:51:02.725Z,4.89
2023-05-22T12:54:11.482Z,4.63
2023-05-22T12:57:18.972Z,4.55
2023-05-22T13:00:40.932Z,4.71
2023-05-22T13:04:02.692Z,4.80
2023-05-22T13:07:13.694Z,4.46
2023-05-22T13:10:23.110Z,4.69
2023-05-22T13:13:36.275Z,4.82
2023-05-22T13:16:51.017Z,4.76
2023-05-22T13:19:59.330Z,4.55
2023-05-22T13:23:05.271Z,4.37
2023-05-22T13:26:15.757Z,4.78
2023-05-22T13:29:21.997Z,4.71
2023-05-22T13:32:37.448Z,4.46
2023-05-22T13:35:43.574Z,4.74
2023-05-22T13:38:50.675Z,4.91
2023-05-22T13:41:59.801Z,5.30
2023-05-22T13:45:08.178Z,4.57
2023-05-22T13:48:14.524Z,4.96
2023-05-22T13:51:21.688Z,4.77
2023-05-22T13:54:27.880Z,4.72
2023-05-22T13:57:40.870Z,4.93
2023-05-22T14:00:47.187Z,4.78
2023-05-22T14:03:54.493Z,4.84
2023-05-22T14:07:00.767Z,4.89
2023-05-22T14:10:16.095Z,4.81
2023-05-22T14:13:32.699Z,4.97
2023-05-22T14:16:40.721Z,5.14
2023-05-22T14:19:48.301Z,5.09
2023-05-22T14:22:58.096Z,5.36
2023-05-22T14:26:04.795Z,5.08
2023-05-22T14:29:16.835Z,5.01
2023-05-22T14:32:22.984Z,4.93
2023-05-22T14:35:32.235Z,5.01
2023-05-22T14:38:38.519Z,5.12
2023-05-22T14:41:48.321Z,5.44
2023-05-22T14:44:56.812Z,5.17
2023-05-22T14:48:03.624Z,5.02
2023-05-22T14:51:09.684Z,5.01
2023-05-22T14:54:18.082Z,5.21
2023-05-22T14:57:29.908Z,5.31
2023-05-22T15:00:42.944Z,5.21
2023-05-22T15:03:48.939Z,4.96
2023-05-22T15:06:56.102Z,4.74
2023-05-22T15:10:02.626Z,4.96
2023-05-22T15:13:24.957Z,5.00
2023-05-22T15:16:35.081Z,5.28
2023-05-22T15:19:44.104Z,5.17
2023-05-22T15:22:50.199Z,5.41
2023-05-22T15:25:58.780Z,5.25
2023-05-22T15:29:04.734Z,5.13
2023-05-22T15:32:16.646Z,5.42
2023-05-22T15:35:23.178Z,5.68
2023-05-22T15:38:31.272Z,5.31
2023-05-22T15:41:41.190Z,5.25
2023-05-22T15:44:50.719Z,5.47
2023-05-22T15:48:00.421Z,5.53
2023-05-22T15:51:16.263Z,5.77
2023-05-22T15:54:22.613Z,6.00
2023-05-22T15:57:31.184Z,5.69
2023-05-22T16:00:41.436Z,5.63
2023-05-22T16:03:51.053Z,5.41
2023-05-22T16:06:57.302Z,5.32
2023-05-22T16:10:10.374Z,5.25
2023-05-22T16:13:16.859Z,5.45
2023-05-22T16:16:37.835Z,5.27
2023-05-22T16:20:08.375Z,5.48
2023-05-22T16:23:30.195Z,5.57
2023-05-22T16:26:51.115Z,5.40
2023-05-22T16:30:15.167Z,5.64
2023-05-22T16:33:37.799Z,5.25
2023-05-22T16:37:04.968Z,5.25
2023-05-22T16:40:13.105Z,5.30
2023-05-22T16:43:28.371Z,5.55
2023-05-22T16:46:35.452Z,5.77
2023-05-22T16:49:46.639Z,5.85
2023-05-22T16:52:57.989Z,5.83
2023-05-22T16:56:03.861Z,5.43
2023-05-22T16:59:10.690Z,6.31
2023-05-22T17:02:16.912Z,5.82
2023-05-22T17:05:24.532Z,6.39
2023-05-22T17:08:33.208Z,6.58
2023-05-22T17:11:40.280Z,7.33
2023-05-22T17:14:46.391Z,7.89
2023-05-22T17:17:53.360Z,10.44
2023-05-22T17:21:00.989Z,13.07
2023-05-22T17:24:23.504Z,10.47
2023-05-22T17:27:35.963Z,8.58
2023-05-22T17:30:47.059Z,6.58
2023-05-22T17:33:53.057Z,6.74
2023-05-22T17:37:01.803Z,6.68
2023-05-22T17:40:12.994Z,7.36
2023-05-22T17:43:20.235Z,7.21
2023-05-22T17:46:26.981Z,6.64
2023-05-22T17:49:33.931Z,7.03
2023-05-22T17:52:43.015Z,7.39
2023-05-22T17:55:55.425Z,7.43
2023-05-22T17:59:01.758Z,8.18
2023-05-22T18:02:09.056Z,8.41
2023-05-22T18:05:15.184Z,8.47
2023-05-22T18:08:22.493Z,8.55
2023-05-22T18:11:34.972Z,8.32
2023-05-22T18:14:42.434Z,8.63
2023-05-22T18:18:03.755Z,8.62
2023-05-22T18:21:26.450Z,7.76
2023-05-22T18:24:47.416Z,7.99
2023-05-22T18:28:11.715Z,7.66
2023-05-22T18:31:33.050Z,7.64
2023-05-22T18:34:54.702Z,8.09
2023-05-22T18:38:02.583Z,8.21
2023-05-22T18:41:15.368Z,7.82
2023-05-22T18:44:25.369Z,8.18
2023-05-22T18:47:31.508Z,7.80
2023-05-22T18:50:38.391Z,8.20
2023-05-22T18:53:44.459Z,8.32
2023-05-22T18:56:51.422Z,8.68
2023-05-22T19:00:00.405Z,9.44
2023-05-22T19:03:11.617Z,9.87
2023-05-22T19:06:19.192Z,9.67
2023-05-22T19:09:26.131Z,9.46
2023-05-22T19:12:32.289Z,9.55
2023-05-22T19:15:41.852Z,9.19
2023-05-22T19:18:51.095Z,9.48
2023-05-22T19:21:58.079Z,9.06
2023-05-22T19:25:04.245Z,8.89
2023-05-22T19:28:11.251Z,8.93
2023-05-22T19:31:19.917Z,8.62
2023-05-22T19:34:26.779Z,8.54
2023-05-22T19:37:32.790Z,8.77
2023-05-22T19:40:40.122Z,8.41
2023-05-22T19:44:01.366Z,9.74
2023-05-22T19:47:25.511Z,9.06
2023-05-22T19:50:46.631Z,9.58
2023-05-22T19:54:07.824Z,9.83
2023-05-22T19:57:29.572Z,9.99
2023-05-22T20:00:51.580Z,10.13
2023-05-22T20:04:01.373Z,10.12
2023-05-22T20:07:08.688Z,10.28
2023-05-22T20:10:15.286Z,10.55
2023-05-22T20:13:22.139Z,11.03
2023-05-22T20:16:29.582Z,10.73
2023-05-22T20:19:39.164Z,10.82
2023-05-22T20:22:46.152Z,10.48
2023-05-22T20:25:53.280Z,10.57
2023-05-22T20:28:59.367Z,10.52
2023-05-22T20:32:06.340Z,10.47
2023-05-22T20:35:19.069Z,10.44
2023-05-22T20:38:42.767Z,10.58
2023-05-22T20:42:05.031Z,10.56
2023-05-22T20:45:26.771Z,10.87
2023-05-22T20:48:48.573Z,11.59
2023-05-22T20:52:13.629Z,11.64
2023-05-22T20:55:34.530Z,11.53
2023-05-22T20:58:55.447Z,11.82
2023-05-22T21:02:16.358Z,12.37
2023-05-22T21:05:37.487Z,12.03
2023-05-22T21:09:02.229Z,12.15
2023-05-22T21:12:23.081Z,11.92
2023-05-22T21:15:45.167Z,12.17
2023-05-22T21:18:52.032Z,12.19
2023-05-22T21:21:58.139Z,12.49
2023-05-22T21:25:08.749Z,12.60
2023-05-22T21:28:14.654Z,12.89
2023-05-22T21:31:21.512Z,13.26
2023-05-22T21:34:47.009Z,12.79
2023-05-22T21:38:08.002Z,12.00
2023-05-22T21:41:38.639Z,12.53
2023-05-22T21:44:59.566Z,12.84
2023-05-22T21:48:20.560Z,12.76
2023-05-22T21:51:41.386Z,12.82
2023-05-22T21:55:02.754Z,12.71
2023-05-22T21:58:28.852Z,13.25
2023-05-22T22:01:49.962Z,13.75
2023-05-22T22:05:11.920Z,13.51
2023-05-22T22:08:32.808Z,13.18
2023-05-22T22:11:39.633Z,13.77
2023-05-22T22:14:49.299Z,13.50
2023-05-22T22:17:59.585Z,13.20
2023-05-22T22:21:06.141Z,13.26
2023-05-22T22:24:13.485Z,14.11
2023-05-22T22:27:20.045Z,13.57
2023-05-22T22:30:29.461Z,14.15
2023-05-22T22:33:50.394Z,14.99
2023-05-22T22:37:11.911Z,14.43
2023-05-22T22:40:32.737Z,14.21
2023-05-22T22:43:56.478Z,14.26
2023-05-22T22:47:20.103Z,13.49
2023-05-22T22:50:41.882Z,13.28
2023-05-22T22:54:03.022Z,13.77
2023-05-22T22:57:23.960Z,14.00
2023-05-22T23:00:45.249Z,14.12
2023-05-22T23:04:22.405Z,14.03
2023-05-22T23:07:45.561Z,14.63
2023-05-22T23:11:09.382Z,14.60
2023-05-22T23:14:37.894Z,14.46
2023-05-22T23:17:59.583Z,14.43
2023-05-22T23:21:23.084Z,14.53
2023-05-22T23:24:44.081Z,14.19
2023-05-22T23:28:23.579Z,14.24
2023-05-22T23:31:50.803Z,13.73
2023-05-22T23:35:12.791Z,14.30
2023-05-22T23:38:38.968Z,13.98
2023-05-22T23:42:08.644Z,14.00
2023-05-22T23:45:31.757Z,13.94
2023-05-22T23:48:38.622Z,14.28
2023-05-22T23:51:44.574Z,13.36
2023-05-22T23:54:54.049Z,14.38
2023-05-22T23:58:00.196Z,14.43
